Missouri River (Missouri), Glasgow (06906500)

StateMissouriLatestUnknown (80400 cfs)
RiverMissouri RiverRatingObservedEstimated
Updated2024-06-14 22:30 (39 minutes ago)Flood - The river is flooding. Obstacles can be treacherous or deadly. The river should be avoided at this stage for casual trips and definitely for the inexperienced. Trips should be attempted only with protective gear and equipment.Flood(none)(none)
Discharge80400 cfs (median: 96400 cfs)High - The river is high and potentially dangerous, especially for the young and / or inexperienced. Normal stream obstacles are sometimes difficult to navigate. Extended distances can be attempted, but canoe travel may not be advisable.High(none)(none)
Height16.81 feetGood - Conditions are ideal for a canoe or kayak. Boats typically will drag on fewer than one-quarter of riffles, if at all, and portages are unnecessary or rare. Normal float lengths can be attempted without a problem.Good(none)(none)
TrendRising (rising over 24 hours)Low - River is low but can still be floated. Some riffles are okay but most come with significant dragging and might need a portage. Float lengths should be reduced to accommodate low flow, dragging, and portages.Low(none)(none)
USGSExternal icon USGS Site (External icon Duck Duck Go Maps)Poor - River is too low to float comfortably. Most or all riffles will drag or must be portaged and some obstacles (such as slick shelf rock) cause undue problems. Avoid the river at this stage for casual paddling trips.Poor(none)(none)

Trending Data

Plot Image

Trips for Missouri River (Missouri), Glasgow (06906500)

DateStartEndDistanceConditionDischargeHeightFishingDetails

A total of 0 rows are displayed.

Condition Descriptions

Fishing Conditions

Fish Species

Notes

Classic Trip List

The classic River Trips application is still available for use. It is updated with the new system using a data retrofit. It is no longer maintained. The original River Trips application is no longer updated (as of 1 Dec 2016) but can be checked for errors or for the condition of the data before it was converted to the new system.

Gauge Data Table

ObservationHeightDischargeMaximum
Discharge
Minimum
Discharge
Mean
Discharge
P05P10P20P25P50
(Median)
P75P80P90P95
2024-06-14 22:30 16.81 80400 271000 (2019) 39500 (2023) 118000 41100 49900 69700 78600 93300 160000 195000 238000 266000
2024-06-14 21:30 16.76 80000 271000 (2019) 39500 (2023) 118000 41100 49900 69700 78600 93300 160000 195000 238000 266000
2024-06-14 20:30 16.68 79300 271000 (2019) 39500 (2023) 118000 41100 49900 69700 78600 93300 160000 195000 238000 266000
2024-06-14 19:30 16.62 78900 271000 (2019) 39500 (2023) 118000 41100 49900 69700 78600 93300 160000 195000 238000 266000
2024-06-14 18:30 16.56 78400 271000 (2019) 39500 (2023) 118000 41100 49900 69700 78600 93300 160000 195000 238000 266000
2024-06-14 17:30 16.50 77900 271000 (2019) 39500 (2023) 118000 41100 49900 69700 78600 93300 160000 195000 238000 266000
2024-06-14 16:30 16.47 77700 271000 (2019) 39500 (2023) 118000 41100 49900 69700 78600 93300 160000 195000 238000 266000
2024-06-14 15:30 16.39 77000 271000 (2019) 39500 (2023) 118000 41100 49900 69700 78600 93300 160000 195000 238000 266000
2024-06-14 14:30 16.33 76500 271000 (2019) 39500 (2023) 118000 41100 49900 69700 78600 93300 160000 195000 238000 266000
2024-06-14 13:30 16.31 76400 271000 (2019) 39500 (2023) 118000 41100 49900 69700 78600 93300 160000 195000 238000 266000
2024-06-14 12:30 16.26 76000 271000 (2019) 39500 (2023) 118000 41100 49900 69700 78600 93300 160000 195000 238000 266000
2024-06-14 11:30 16.24 75800 271000 (2019) 39500 (2023) 118000 41100 49900 69700 78600 93300 160000 195000 238000 266000
2024-06-14 10:30 16.20 75500 271000 (2019) 39500 (2023) 118000 41100 49900 69700 78600 93300 160000 195000 238000 266000
2024-06-14 09:30 16.13 75000 271000 (2019) 39500 (2023) 118000 41100 49900 69700 78600 93300 160000 195000 238000 266000
2024-06-14 08:30 16.14 75100 271000 (2019) 39500 (2023) 118000 41100 49900 69700 78600 93300 160000 195000 238000 266000
2024-06-14 07:30 16.14 75100 271000 (2019) 39500 (2023) 118000 41100 49900 69700 78600 93300 160000 195000 238000 266000
2024-06-14 06:30 16.09 74700 271000 (2019) 39500 (2023) 118000 41100 49900 69700 78600 93300 160000 195000 238000 266000
2024-06-14 05:30 16.10 74800 271000 (2019) 39500 (2023) 118000 41100 49900 69700 78600 93300 160000 195000 238000 266000
2024-06-14 04:30 16.07 74500 271000 (2019) 39500 (2023) 118000 41100 49900 69700 78600 93300 160000 195000 238000 266000
2024-06-14 03:30 16.06 74400 271000 (2019) 39500 (2023) 118000 41100 49900 69700 78600 93300 160000 195000 238000 266000
2024-06-14 02:30 16.05 74400 271000 (2019) 39500 (2023) 118000 41100 49900 69700 78600 93300 160000 195000 238000 266000
2024-06-14 01:30 16.03 74200 271000 (2019) 39500 (2023) 118000 41100 49900 69700 78600 93300 160000 195000 238000 266000
2024-06-14 00:30 15.97 73800 271000 (2019) 39500 (2023) 118000 41100 49900 69700 78600 93300 160000 195000 238000 266000
2024-06-13 23:30 15.94 73500 271000 (2019) 39500 (2023) 118000 41100 49900 69700 78600 93300 160000 195000 238000 266000
2024-06-13 22:30 15.95 73600 282000 (2019) 39700 (2023) 116000 41600 51500 63900 75000 93100 165000 174000 207000 269000
2024-06-13 21:30 15.85 72800 282000 (2019) 39700 (2023) 116000 41600 51500 63900 75000 93100 165000 174000 207000 269000
2024-06-13 20:30 15.89 73200 282000 (2019) 39700 (2023) 116000 41600 51500 63900 75000 93100 165000 174000 207000 269000
2024-06-13 19:30 15.91 73300 282000 (2019) 39700 (2023) 116000 41600 51500 63900 75000 93100 165000 174000 207000 269000
2024-06-13 18:30 15.90 73200 282000 (2019) 39700 (2023) 116000 41600 51500 63900 75000 93100 165000 174000 207000 269000
2024-06-13 17:30 15.89 73200 282000 (2019) 39700 (2023) 116000 41600 51500 63900 75000 93100 165000 174000 207000 269000
2024-06-13 16:30 15.91 73300 282000 (2019) 39700 (2023) 116000 41600 51500 63900 75000 93100 165000 174000 207000 269000
2024-06-13 15:30 15.89 73200 282000 (2019) 39700 (2023) 116000 41600 51500 63900 75000 93100 165000 174000 207000 269000
2024-06-13 14:30 15.93 73500 282000 (2019) 39700 (2023) 116000 41600 51500 63900 75000 93100 165000 174000 207000 269000
2024-06-13 13:30 15.92 73400 282000 (2019) 39700 (2023) 116000 41600 51500 63900 75000 93100 165000 174000 207000 269000
2024-06-13 12:30 15.95 73600 282000 (2019) 39700 (2023) 116000 41600 51500 63900 75000 93100 165000 174000 207000 269000
2024-06-13 11:30 15.97 73800 282000 (2019) 39700 (2023) 116000 41600 51500 63900 75000 93100 165000 174000 207000 269000
2024-06-13 10:30 15.98 73800 282000 (2019) 39700 (2023) 116000 41600 51500 63900 75000 93100 165000 174000 207000 269000
2024-06-13 09:30 16.00 74000 282000 (2019) 39700 (2023) 116000 41600 51500 63900 75000 93100 165000 174000 207000 269000
2024-06-13 08:30 16.01 74100 282000 (2019) 39700 (2023) 116000 41600 51500 63900 75000 93100 165000 174000 207000 269000
2024-06-13 07:30 16.03 74200 282000 (2019) 39700 (2023) 116000 41600 51500 63900 75000 93100 165000 174000 207000 269000
2024-06-13 06:30 16.03 74200 282000 (2019) 39700 (2023) 116000 41600 51500 63900 75000 93100 165000 174000 207000 269000
2024-06-13 05:30 16.08 74600 282000 (2019) 39700 (2023) 116000 41600 51500 63900 75000 93100 165000 174000 207000 269000
2024-06-13 04:30 16.10 74800 282000 (2019) 39700 (2023) 116000 41600 51500 63900 75000 93100 165000 174000 207000 269000
2024-06-13 03:30 16.12 74900 282000 (2019) 39700 (2023) 116000 41600 51500 63900 75000 93100 165000 174000 207000 269000
2024-06-13 02:30 16.18 75400 282000 (2019) 39700 (2023) 116000 41600 51500 63900 75000 93100 165000 174000 207000 269000
2024-06-13 01:30 16.20 75500 282000 (2019) 39700 (2023) 116000 41600 51500 63900 75000 93100 165000 174000 207000 269000
2024-06-13 00:30 16.21 75600 282000 (2019) 39700 (2023) 116000 41600 51500 63900 75000 93100 165000 174000 207000 269000
2024-06-12 23:30 16.26 76000 282000 (2019) 39700 (2023) 116000 41600 51500 63900 75000 93100 165000 174000 207000 269000
2024-06-12 22:30 16.28 76200 291000 (2019) 39700 (2023) 114000 41100 47100 59200 73700 99900 134000 156000 208000 278000
2024-06-12 21:30 16.29 76200 291000 (2019) 39700 (2023) 114000 41100 47100 59200 73700 99900 134000 156000 208000 278000
2024-06-12 20:30 16.32 76500 291000 (2019) 39700 (2023) 114000 41100 47100 59200 73700 99900 134000 156000 208000 278000
2024-06-12 19:30 16.38 76900 291000 (2019) 39700 (2023) 114000 41100 47100 59200 73700 99900 134000 156000 208000 278000
2024-06-12 18:30 16.39 77000 291000 (2019) 39700 (2023) 114000 41100 47100 59200 73700 99900 134000 156000 208000 278000
2024-06-12 17:30 16.43 77300 291000 (2019) 39700 (2023) 114000 41100 47100 59200 73700 99900 134000 156000 208000 278000
2024-06-12 16:30 16.47 77700 291000 (2019) 39700 (2023) 114000 41100 47100 59200 73700 99900 134000 156000 208000 278000
2024-06-12 15:30 16.52 78000 291000 (2019) 39700 (2023) 114000 41100 47100 59200 73700 99900 134000 156000 208000 278000
2024-06-12 14:30 16.52 78000 291000 (2019) 39700 (2023) 114000 41100 47100 59200 73700 99900 134000 156000 208000 278000
2024-06-12 13:30 16.58 78500 291000 (2019) 39700 (2023) 114000 41100 47100 59200 73700 99900 134000 156000 208000 278000
2024-06-12 12:30 16.64 79000 291000 (2019) 39700 (2023) 114000 41100 47100 59200 73700 99900 134000 156000 208000 278000
2024-06-12 11:30 16.67 79300 291000 (2019) 39700 (2023) 114000 41100 47100 59200 73700 99900 134000 156000 208000 278000
2024-06-12 10:30 16.70 79500 291000 (2019) 39700 (2023) 114000 41100 47100 59200 73700 99900 134000 156000 208000 278000
2024-06-12 09:30 16.74 79800 291000 (2019) 39700 (2023) 114000 41100 47100 59200 73700 99900 134000 156000 208000 278000
2024-06-12 08:30 16.80 80300 291000 (2019) 39700 (2023) 114000 41100 47100 59200 73700 99900 134000 156000 208000 278000
2024-06-12 07:30 16.83 80600 291000 (2019) 39700 (2023) 114000 41100 47100 59200 73700 99900 134000 156000 208000 278000
2024-06-12 06:30 16.88 81000 291000 (2019) 39700 (2023) 114000 41100 47100 59200 73700 99900 134000 156000 208000 278000
2024-06-12 05:30 16.90 81100 291000 (2019) 39700 (2023) 114000 41100 47100 59200 73700 99900 134000 156000 208000 278000
2024-06-12 04:30 16.93 81400 291000 (2019) 39700 (2023) 114000 41100 47100 59200 73700 99900 134000 156000 208000 278000
2024-06-12 03:30 16.95 81500 291000 (2019) 39700 (2023) 114000 41100 47100 59200 73700 99900 134000 156000 208000 278000
2024-06-12 02:30 16.98 81800 291000 (2019) 39700 (2023) 114000 41100 47100 59200 73700 99900 134000 156000 208000 278000
2024-06-12 01:30 17.02 82100 291000 (2019) 39700 (2023) 114000 41100 47100 59200 73700 99900 134000 156000 208000 278000
2024-06-12 00:30 17.03 82200 291000 (2019) 39700 (2023) 114000 41100 47100 59200 73700 99900 134000 156000 208000 278000
2024-06-11 23:30 17.07 82500 291000 (2019) 39700 (2023) 114000 41100 47100 59200 73700 99900 134000 156000 208000 278000
2024-06-11 22:30 17.09 82700 304000 (2019) 40000 (2023) 117000 40600 43600 54500 61100 114000 146000 157000 218000 291000
2024-06-11 21:30 17.10 82800 304000 (2019) 40000 (2023) 117000 40600 43600 54500 61100 114000 146000 157000 218000 291000
2024-06-11 20:30 17.13 83000 304000 (2019) 40000 (2023) 117000 40600 43600 54500 61100 114000 146000 157000 218000 291000
2024-06-11 19:30 17.13 83000 304000 (2019) 40000 (2023) 117000 40600 43600 54500 61100 114000 146000 157000 218000 291000
2024-06-11 18:30 17.10 82800 304000 (2019) 40000 (2023) 117000 40600 43600 54500 61100 114000 146000 157000 218000 291000
2024-06-11 17:30 17.12 83000 304000 (2019) 40000 (2023) 117000 40600 43600 54500 61100 114000 146000 157000 218000 291000
2024-06-11 16:30 17.16 83300 304000 (2019) 40000 (2023) 117000 40600 43600 54500 61100 114000 146000 157000 218000 291000
2024-06-11 15:30 17.14 83100 304000 (2019) 40000 (2023) 117000 40600 43600 54500 61100 114000 146000 157000 218000 291000
2024-06-11 14:30 17.17 83400 304000 (2019) 40000 (2023) 117000 40600 43600 54500 61100 114000 146000 157000 218000 291000
2024-06-11 13:30 17.20 83600 304000 (2019) 40000 (2023) 117000 40600 43600 54500 61100 114000 146000 157000 218000 291000
2024-06-11 12:30 17.17 83400 304000 (2019) 40000 (2023) 117000 40600 43600 54500 61100 114000 146000 157000 218000 291000
2024-06-11 11:30 17.17 83400 304000 (2019) 40000 (2023) 117000 40600 43600 54500 61100 114000 146000 157000 218000 291000
2024-06-11 10:30 17.18 83500 304000 (2019) 40000 (2023) 117000 40600 43600 54500 61100 114000 146000 157000 218000 291000
2024-06-11 09:30 17.18 83500 304000 (2019) 40000 (2023) 117000 40600 43600 54500 61100 114000 146000 157000 218000 291000
2024-06-11 08:30 17.18 83500 304000 (2019) 40000 (2023) 117000 40600 43600 54500 61100 114000 146000 157000 218000 291000
2024-06-11 07:30 17.26 84100 304000 (2019) 40000 (2023) 117000 40600 43600 54500 61100 114000 146000 157000 218000 291000
2024-06-11 06:30 17.26 84100 304000 (2019) 40000 (2023) 117000 40600 43600 54500 61100 114000 146000 157000 218000 291000
2024-06-11 05:30 17.26 84100 304000 (2019) 40000 (2023) 117000 40600 43600 54500 61100 114000 146000 157000 218000 291000
2024-06-11 04:30 17.27 84200 304000 (2019) 40000 (2023) 117000 40600 43600 54500 61100 114000 146000 157000 218000 291000
2024-06-11 03:30 17.28 84300 304000 (2019) 40000 (2023) 117000 40600 43600 54500 61100 114000 146000 157000 218000 291000
2024-06-11 02:30 17.28 84300 304000 (2019) 40000 (2023) 117000 40600 43600 54500 61100 114000 146000 157000 218000 291000
2024-06-11 01:30 17.27 84200 304000 (2019) 40000 (2023) 117000 40600 43600 54500 61100 114000 146000 157000 218000 291000
2024-06-11 00:30 17.26 84100 304000 (2019) 40000 (2023) 117000 40600 43600 54500 61100 114000 146000 157000 218000 291000
2024-06-10 23:30 17.27 84200 304000 (2019) 40000 (2023) 117000 40600 43600 54500 61100 114000 146000 157000 218000 291000
2024-06-10 22:30 17.28 84300 312000 (2019) 37600 (2006) 118000 38100 41800 54700 63000 106000 157000 177000 219000 297000
2024-06-10 21:30 17.26 84100 312000 (2019) 37600 (2006) 118000 38100 41800 54700 63000 106000 157000 177000 219000 297000
2024-06-10 20:30 17.28 84300 312000 (2019) 37600 (2006) 118000 38100 41800 54700 63000 106000 157000 177000 219000 297000
2024-06-10 19:30 17.29 84400 312000 (2019) 37600 (2006) 118000 38100 41800 54700 63000 106000 157000 177000 219000 297000
2024-06-10 18:30 17.31 84600 312000 (2019) 37600 (2006) 118000 38100 41800 54700 63000 106000 157000 177000 219000 297000
2024-06-10 17:30 17.32 84600 312000 (2019) 37600 (2006) 118000 38100 41800 54700 63000 106000 157000 177000 219000 297000
2024-06-10 16:30 17.30 84500 312000 (2019) 37600 (2006) 118000 38100 41800 54700 63000 106000 157000 177000 219000 297000
2024-06-10 15:30 17.35 84900 312000 (2019) 37600 (2006) 118000 38100 41800 54700 63000 106000 157000 177000 219000 297000
2024-06-10 14:30 17.36 85000 312000 (2019) 37600 (2006) 118000 38100 41800 54700 63000 106000 157000 177000 219000 297000
2024-06-10 13:30 17.41 85400 312000 (2019) 37600 (2006) 118000 38100 41800 54700 63000 106000 157000 177000 219000 297000
2024-06-10 12:30 17.43 85600 312000 (2019) 37600 (2006) 118000 38100 41800 54700 63000 106000 157000 177000 219000 297000
2024-06-10 11:30 17.44 85700 312000 (2019) 37600 (2006) 118000 38100 41800 54700 63000 106000 157000 177000 219000 297000
2024-06-10 10:30 17.48 86000 312000 (2019) 37600 (2006) 118000 38100 41800 54700 63000 106000 157000 177000 219000 297000
2024-06-10 09:30 17.50 86200 312000 (2019) 37600 (2006) 118000 38100 41800 54700 63000 106000 157000 177000 219000 297000
2024-06-10 08:30 17.54 86500 312000 (2019) 37600 (2006) 118000 38100 41800 54700 63000 106000 157000 177000 219000 297000
2024-06-10 07:30 17.57 86800 312000 (2019) 37600 (2006) 118000 38100 41800 54700 63000 106000 157000 177000 219000 297000
2024-06-10 06:30 17.60 87100 312000 (2019) 37600 (2006) 118000 38100 41800 54700 63000 106000 157000 177000 219000 297000
2024-06-10 05:30 17.64 87400 312000 (2019) 37600 (2006) 118000 38100 41800 54700 63000 106000 157000 177000 219000 297000
2024-06-10 04:30 17.64 87400 312000 (2019) 37600 (2006) 118000 38100 41800 54700 63000 106000 157000 177000 219000 297000
2024-06-10 03:30 17.71 88000 312000 (2019) 37600 (2006) 118000 38100 41800 54700 63000 106000 157000 177000 219000 297000
2024-06-10 02:30 17.73 88200 312000 (2019) 37600 (2006) 118000 38100 41800 54700 63000 106000 157000 177000 219000 297000
2024-06-10 01:30 17.76 88500 312000 (2019) 37600 (2006) 118000 38100 41800 54700 63000 106000 157000 177000 219000 297000
2024-06-10 00:30 17.80 88800 312000 (2019) 37600 (2006) 118000 38100 41800 54700 63000 106000 157000 177000 219000 297000
2024-06-09 23:30 17.85 89300 312000 (2019) 37600 (2006) 118000 38100 41800 54700 63000 106000 157000 177000 219000 297000
2024-06-09 22:30 17.88 89500 317000 (2019) 38800 (2006) 120000 39100 42300 56100 65400 105000 177000 191000 221000 299000
2024-06-09 21:30 17.91 89800 317000 (2019) 38800 (2006) 120000 39100 42300 56100 65400 105000 177000 191000 221000 299000
2024-06-09 20:30 17.95 90100 317000 (2019) 38800 (2006) 120000 39100 42300 56100 65400 105000 177000 191000 221000 299000
2024-06-09 19:30 17.98 90400 317000 (2019) 38800 (2006) 120000 39100 42300 56100 65400 105000 177000 191000 221000 299000
2024-06-09 18:30 18.00 90600 317000 (2019) 38800 (2006) 120000 39100 42300 56100 65400 105000 177000 191000 221000 299000
2024-06-09 17:30 18.02 90700 317000 (2019) 38800 (2006) 120000 39100 42300 56100 65400 105000 177000 191000 221000 299000
2024-06-09 16:30 18.00 90600 317000 (2019) 38800 (2006) 120000 39100 42300 56100 65400 105000 177000 191000 221000 299000
2024-06-09 15:30 18.00 90600 317000 (2019) 38800 (2006) 120000 39100 42300 56100 65400 105000 177000 191000 221000 299000
2024-06-09 14:30 17.98 90400 317000 (2019) 38800 (2006) 120000 39100 42300 56100 65400 105000 177000 191000 221000 299000
2024-06-09 13:30 18.01 90700 317000 (2019) 38800 (2006) 120000 39100 42300 56100 65400 105000 177000 191000 221000 299000
2024-06-09 12:30 18.00 90600 317000 (2019) 38800 (2006) 120000 39100 42300 56100 65400 105000 177000 191000 221000 299000
2024-06-09 11:30 17.97 90300 317000 (2019) 38800 (2006) 120000 39100 42300 56100 65400 105000 177000 191000 221000 299000
2024-06-09 10:30 17.95 90100 317000 (2019) 38800 (2006) 120000 39100 42300 56100 65400 105000 177000 191000 221000 299000
2024-06-09 09:30 17.95 90100 317000 (2019) 38800 (2006) 120000 39100 42300 56100 65400 105000 177000 191000 221000 299000
2024-06-09 08:30 17.92 89900 317000 (2019) 38800 (2006) 120000 39100 42300 56100 65400 105000 177000 191000 221000 299000
2024-06-09 07:30 17.88 89500 317000 (2019) 38800 (2006) 120000 39100 42300 56100 65400 105000 177000 191000 221000 299000
2024-06-09 06:30 17.91 89800 317000 (2019) 38800 (2006) 120000 39100 42300 56100 65400 105000 177000 191000 221000 299000
2024-06-09 05:30 17.86 89300 317000 (2019) 38800 (2006) 120000 39100 42300 56100 65400 105000 177000 191000 221000 299000
2024-06-09 04:30 17.83 89100 317000 (2019) 38800 (2006) 120000 39100 42300 56100 65400 105000 177000 191000 221000 299000
2024-06-09 03:30 17.80 88800 317000 (2019) 38800 (2006) 120000 39100 42300 56100 65400 105000 177000 191000 221000 299000
2024-06-09 02:30 17.78 88600 317000 (2019) 38800 (2006) 120000 39100 42300 56100 65400 105000 177000 191000 221000 299000
2024-06-09 01:30 17.77 88500 317000 (2019) 38800 (2006) 120000 39100 42300 56100 65400 105000 177000 191000 221000 299000
2024-06-09 00:30 17.75 88400 317000 (2019) 38800 (2006) 120000 39100 42300 56100 65400 105000 177000 191000 221000 299000
2024-06-08 23:30 17.74 88300 317000 (2019) 38800 (2006) 120000 39100 42300 56100 65400 105000 177000 191000 221000 299000
2024-06-08 22:30 17.70 87900 323000 (2019) 40000 (2006) 122000 40300 43100 57200 58800 100000 165000 183000 259000 311000
2024-06-08 21:30 17.72 88100 323000 (2019) 40000 (2006) 122000 40300 43100 57200 58800 100000 165000 183000 259000 311000
2024-06-08 20:30 17.69 87800 323000 (2019) 40000 (2006) 122000 40300 43100 57200 58800 100000 165000 183000 259000 311000
2024-06-08 19:30 17.68 87800 323000 (2019) 40000 (2006) 122000 40300 43100 57200 58800 100000 165000 183000 259000 311000
2024-06-08 18:30 17.72 88100 323000 (2019) 40000 (2006) 122000 40300 43100 57200 58800 100000 165000 183000 259000 311000
2024-06-08 17:30 17.70 87900 323000 (2019) 40000 (2006) 122000 40300 43100 57200 58800 100000 165000 183000 259000 311000
2024-06-08 16:30 17.74 88300 323000 (2019) 40000 (2006) 122000 40300 43100 57200 58800 100000 165000 183000 259000 311000
2024-06-08 15:30 17.76 88500 323000 (2019) 40000 (2006) 122000 40300 43100 57200 58800 100000 165000 183000 259000 311000
2024-06-08 14:30 17.75 88400 323000 (2019) 40000 (2006) 122000 40300 43100 57200 58800 100000 165000 183000 259000 311000
2024-06-08 13:30 17.77 88500 323000 (2019) 40000 (2006) 122000 40300 43100 57200 58800 100000 165000 183000 259000 311000
2024-06-08 12:30 17.81 88900 323000 (2019) 40000 (2006) 122000 40300 43100 57200 58800 100000 165000 183000 259000 311000
2024-06-08 11:30 17.85 89300 323000 (2019) 40000 (2006) 122000 40300 43100 57200 58800 100000 165000 183000 259000 311000
2024-06-08 10:30 17.87 89400 323000 (2019) 40000 (2006) 122000 40300 43100 57200 58800 100000 165000 183000 259000 311000
2024-06-08 09:30 17.90 89700 323000 (2019) 40000 (2006) 122000 40300 43100 57200 58800 100000 165000 183000 259000 311000
2024-06-08 08:30 17.88 89500 323000 (2019) 40000 (2006) 122000 40300 43100 57200 58800 100000 165000 183000 259000 311000
2024-06-08 07:30 17.89 89600 323000 (2019) 40000 (2006) 122000 40300 43100 57200 58800 100000 165000 183000 259000 311000
2024-06-08 06:30 17.92 89900 323000 (2019) 40000 (2006) 122000 40300 43100 57200 58800 100000 165000 183000 259000 311000
2024-06-08 05:30 17.93 90000 323000 (2019) 40000 (2006) 122000 40300 43100 57200 58800 100000 165000 183000 259000 311000
2024-06-08 04:30 17.96 90200 323000 (2019) 40000 (2006) 122000 40300 43100 57200 58800 100000 165000 183000 259000 311000
2024-06-08 03:30 17.92 89900 323000 (2019) 40000 (2006) 122000 40300 43100 57200 58800 100000 165000 183000 259000 311000
2024-06-08 02:30 18.01 90700 323000 (2019) 40000 (2006) 122000 40300 43100 57200 58800 100000 165000 183000 259000 311000
2024-06-08 01:30 18.03 90800 323000 (2019) 40000 (2006) 122000 40300 43100 57200 58800 100000 165000 183000 259000 311000
2024-06-08 00:30 18.04 90900 323000 (2019) 40000 (2006) 122000 40300 43100 57200 58800 100000 165000 183000 259000 311000
2024-06-07 23:30 18.06 91100 323000 (2019) 40000 (2006) 122000 40300 43100 57200 58800 100000 165000 183000 259000 311000

A total of 168 rows are displayed for years 2001 through 2023.